createdAt,value
2019-04-03T00:01:16.079Z,47.90
2019-04-03T00:03:45.732Z,48.10
2019-04-03T00:06:15.456Z,48.10
2019-04-03T00:08:46.192Z,47.40
2019-04-03T00:11:15.859Z,48.20
2019-04-03T00:13:45.584Z,49.20
2019-04-03T00:16:15.658Z,47.40
2019-04-03T00:18:47.633Z,50.60
2019-04-03T00:21:17.676Z,48.30
2019-04-03T00:23:48.313Z,50.60
2019-04-03T00:26:17.904Z,49.30
2019-04-03T00:28:47.574Z,49.70
2019-04-03T00:31:17.410Z,50.60
2019-04-03T00:33:47.073Z,49.50
2019-04-03T00:36:16.728Z,50.60
2019-04-03T00:38:46.531Z,50.50
2019-04-03T00:41:16.318Z,50.50
2019-04-03T00:43:45.962Z,50.60
2019-04-03T00:46:15.652Z,51.00
2019-04-03T00:48:45.331Z,50.50
2019-04-03T00:51:15.057Z,51.10
2019-04-03T00:53:44.701Z,51.30
2019-04-03T00:56:14.332Z,50.90
2019-04-03T00:58:43.924Z,51.40
2019-04-03T01:01:13.721Z,50.90
2019-04-03T01:03:43.422Z,51.20
2019-04-03T01:06:13.047Z,52.20
2019-04-03T01:08:42.922Z,52.00
2019-04-03T01:11:12.650Z,51.90
2019-04-03T01:13:42.440Z,51.70
2019-04-03T01:16:12.212Z,50.90
2019-04-03T01:18:42.012Z,51.70
2019-04-03T01:21:11.914Z,51.50
2019-04-03T01:23:41.628Z,51.20
2019-04-03T01:26:11.397Z,53.10
2019-04-03T01:28:41.968Z,52.40
2019-04-03T01:31:14.205Z,52.90
2019-04-03T01:33:46.041Z,53.00
2019-04-03T01:36:17.281Z,52.30
2019-04-03T01:38:49.820Z,52.80
2019-04-03T01:41:21.165Z,53.00
2019-04-03T01:43:53.072Z,53.20
2019-04-03T01:46:21.916Z,52.60
2019-04-03T01:48:51.505Z,53.50
2019-04-03T01:51:21.236Z,53.60
2019-04-03T01:53:50.946Z,53.60
2019-04-03T01:56:20.610Z,53.70
2019-04-03T01:58:50.264Z,53.60
2019-04-03T02:01:20.058Z,53.90
2019-04-03T02:03:49.755Z,53.60
2019-04-03T02:06:19.435Z,54.00
2019-04-03T02:08:49.221Z,52.70
2019-04-03T02:11:19.209Z,54.40
2019-04-03T02:13:50.972Z,53.20
2019-04-03T02:16:21.473Z,54.40
2019-04-03T02:18:53.754Z,53.40
2019-04-03T02:21:23.929Z,53.30
2019-04-03T02:23:53.649Z,54.40
2019-04-03T02:26:23.187Z,54.90
2019-04-03T02:28:52.832Z,54.70
2019-04-03T02:31:22.489Z,55.80
2019-04-03T02:33:52.166Z,55.40
2019-04-03T02:36:21.885Z,54.80
2019-04-03T02:38:53.635Z,55.10
2019-04-03T02:41:22.756Z,55.10
2019-04-03T02:43:52.537Z,54.70
2019-04-03T02:46:22.178Z,54.80
2019-04-03T02:48:51.878Z,55.30
2019-04-03T02:51:21.589Z,55.30
2019-04-03T02:53:51.356Z,54.60
2019-04-03T02:56:21.193Z,56.30
2019-04-03T02:58:53.351Z,54.60
2019-04-03T03:01:22.028Z,55.80
2019-04-03T03:03:51.898Z,55.10
2019-04-03T03:06:21.678Z,55.40
2019-04-03T03:08:52.224Z,55.60
2019-04-03T03:11:24.214Z,56.70
2019-04-03T03:13:54.361Z,55.10
2019-04-03T03:16:25.014Z,56.60
2019-04-03T03:18:54.662Z,56.30
2019-04-03T03:21:25.119Z,56.00
2019-04-03T03:23:56.087Z,57.00
2019-04-03T03:26:26.463Z,57.00
2019-04-03T03:28:56.093Z,56.40
2019-04-03T03:31:58.040Z,57.90
2019-04-03T03:34:03.033Z,58.00
2019-04-03T03:36:30.221Z,57.70
2019-04-03T03:39:00.924Z,58.00
2019-04-03T03:41:32.108Z,57.20
2019-04-03T03:44:02.461Z,56.80
2019-04-03T03:46:32.147Z,56.50
2019-04-03T03:49:01.865Z,58.60
2019-04-03T03:51:33.474Z,57.30
2019-04-03T03:54:04.647Z,57.30
2019-04-03T03:56:34.654Z,58.20
2019-04-03T03:59:04.532Z,56.60
2019-04-03T04:01:34.386Z,56.90
2019-04-03T04:04:04.338Z,57.50
2019-04-03T04:06:36.266Z,57.60
2019-04-03T04:09:07.788Z,57.50
2019-04-03T04:11:37.785Z,56.60
2019-04-03T04:14:07.544Z,57.30
2019-04-03T04:16:37.841Z,57.10
2019-04-03T04:19:08.013Z,57.30
2019-04-03T04:21:37.650Z,57.30
2019-04-03T04:24:07.450Z,56.90
2019-04-03T04:26:37.253Z,56.80
2019-04-03T04:29:07.119Z,57.60
2019-04-03T04:31:38.216Z,58.50
2019-04-03T04:34:07.906Z,57.90
2019-04-03T04:36:37.726Z,58.60
2019-04-03T04:39:08.976Z,58.80
2019-04-03T04:41:38.632Z,57.90
2019-04-03T04:44:09.974Z,59.00
2019-04-03T04:46:39.594Z,58.30
2019-04-03T04:49:09.493Z,57.40
2019-04-03T04:51:39.140Z,58.10
2019-04-03T04:54:08.753Z,58.60
2019-04-03T04:56:38.511Z,58.40
2019-04-03T04:59:08.240Z,58.80
2019-04-03T05:01:37.823Z,58.30
2019-04-03T05:04:07.517Z,58.30
2019-04-03T05:06:37.522Z,58.80
2019-04-03T05:09:07.490Z,59.20
2019-04-03T05:11:39.128Z,58.50
2019-04-03T05:14:08.595Z,58.70
2019-04-03T05:16:38.278Z,59.10
2019-04-03T05:19:10.039Z,58.60
2019-04-03T05:21:39.182Z,58.60
2019-04-03T05:24:13.124Z,58.70
2019-04-03T05:26:40.086Z,59.40
2019-04-03T05:29:09.696Z,59.30
2019-04-03T05:31:39.738Z,58.90
2019-04-03T05:34:12.392Z,59.10
2019-04-03T05:36:42.607Z,59.50
2019-04-03T05:39:12.478Z,58.10
2019-04-03T05:41:42.182Z,58.70
2019-04-03T05:44:12.133Z,58.60
2019-04-03T05:46:41.747Z,59.00
2019-04-03T05:49:11.396Z,59.50
2019-04-03T05:51:41.324Z,59.10
2019-04-03T05:54:13.641Z,58.10
2019-04-03T05:56:43.005Z,58.50
2019-04-03T05:59:13.177Z,58.60
2019-04-03T06:01:46.078Z,58.00
2019-04-03T06:04:14.126Z,58.00
2019-04-03T06:06:45.834Z,58.70
2019-04-03T06:09:14.932Z,58.00
2019-04-03T06:11:44.666Z,57.80
2019-04-03T06:14:14.347Z,58.00
2019-04-03T06:16:44.077Z,57.70
2019-04-03T06:19:13.723Z,57.40
2019-04-03T06:21:45.636Z,57.30
2019-04-03T06:24:17.518Z,57.20
2019-04-03T06:26:45.933Z,57.00
2019-04-03T06:29:18.436Z,57.10
2019-04-03T06:31:46.986Z,57.20
2019-04-03T06:34:16.652Z,56.50
2019-04-03T06:36:46.304Z,56.80
2019-04-03T06:39:15.920Z,56.70
2019-04-03T06:41:45.732Z,56.30
2019-04-03T06:44:15.508Z,55.60
2019-04-03T06:46:45.105Z,55.60
2019-04-03T06:49:15.515Z,55.50
2019-04-03T06:51:45.134Z,55.50
2019-04-03T06:54:14.699Z,55.90
2019-04-03T06:56:44.776Z,54.90
2019-04-03T06:59:16.388Z,54.70
2019-04-03T07:01:45.651Z,54.70
2019-04-03T07:04:15.391Z,54.50
2019-04-03T07:06:45.667Z,53.90
2019-04-03T07:09:23.078Z,53.30
2019-04-03T07:11:46.836Z,53.10
2019-04-03T07:14:16.470Z,53.10
2019-04-03T07:16:46.044Z,53.10
2019-04-03T07:19:15.644Z,53.20
2019-04-03T07:21:45.361Z,53.20
2019-04-03T07:24:15.024Z,52.70
2019-04-03T07:26:44.970Z,51.60
2019-04-03T07:29:16.931Z,51.00
2019-04-03T07:31:45.985Z,50.90
2019-04-03T07:34:15.756Z,50.50
2019-04-03T07:36:46.288Z,50.30
2019-04-03T07:39:18.468Z,49.10
2019-04-03T07:41:47.484Z,49.20
2019-04-03T07:44:17.140Z,47.90
2019-04-03T07:46:46.814Z,47.40
2019-04-03T07:49:18.582Z,47.30
2019-04-03T07:51:48.103Z,46.60
2019-04-03T07:54:17.778Z,46.50
2019-04-03T07:56:47.537Z,45.50
2019-04-03T07:59:17.248Z,45.70
2019-04-03T08:01:47.030Z,44.70
2019-04-03T08:04:17.027Z,44.70
2019-04-03T08:06:46.995Z,44.80
2019-04-03T08:09:16.681Z,45.00
2019-04-03T08:11:46.247Z,44.20
2019-04-03T08:14:15.889Z,44.20
2019-04-03T08:16:45.918Z,43.10
2019-04-03T08:19:16.780Z,43.40
2019-04-03T08:21:46.432Z,42.70
2019-04-03T08:24:16.094Z,42.30
2019-04-03T08:26:45.818Z,41.80
2019-04-03T08:29:15.487Z,41.10
2019-04-03T08:31:48.276Z,40.90
2019-04-03T08:34:18.588Z,40.80
2019-04-03T08:36:47.661Z,39.50
2019-04-03T08:39:17.897Z,40.40
2019-04-03T08:41:47.620Z,40.40
2019-04-03T08:44:18.136Z,40.60
2019-04-03T08:46:47.931Z,40.10
2019-04-03T08:49:17.576Z,39.70
2019-04-03T08:51:47.164Z,39.20
2019-04-03T08:54:16.784Z,39.10
2019-04-03T08:56:48.420Z,38.90
2019-04-03T08:59:17.745Z,38.40
2019-04-03T09:01:47.326Z,38.80
2019-04-03T09:04:28.881Z,38.90
2019-04-03T09:06:58.637Z,38.90
2019-04-03T09:09:29.896Z,38.90
2019-04-03T09:11:59.633Z,38.20
2019-04-03T09:14:29.342Z,38.30
2019-04-03T09:17:02.258Z,38.00
2019-04-03T09:19:30.643Z,38.30
2019-04-03T09:22:00.376Z,38.00
2019-04-03T09:24:30.305Z,37.40
2019-04-03T09:27:00.275Z,36.90
2019-04-03T09:29:29.928Z,36.90
2019-04-03T09:31:59.606Z,36.90
2019-04-03T09:34:30.456Z,37.50
2019-04-03T09:37:00.468Z,36.90
2019-04-03T09:39:30.513Z,37.00
2019-04-03T09:42:00.149Z,36.90
2019-04-03T09:44:29.800Z,36.30
2019-04-03T09:47:01.106Z,37.00
2019-04-03T09:49:31.836Z,36.20
2019-04-03T09:52:02.679Z,36.50
2019-04-03T09:54:32.339Z,36.10
2019-04-03T09:57:04.883Z,35.90
2019-04-03T09:59:33.412Z,35.00
2019-04-03T10:02:03.481Z,35.50
2019-04-03T10:04:33.275Z,35.10
2019-04-03T10:07:03.004Z,34.50
2019-04-03T10:09:32.756Z,34.00
2019-04-03T10:12:02.418Z,34.10
2019-04-03T10:14:32.100Z,33.00
2019-04-03T10:17:05.367Z,32.90
2019-04-03T10:19:33.932Z,33.20
2019-04-03T10:22:03.575Z,33.50
2019-04-03T10:24:33.340Z,32.80
2019-04-03T10:27:03.026Z,32.90
2019-04-03T10:29:32.758Z,31.10
2019-04-03T10:32:02.585Z,31.70
2019-04-03T10:34:34.826Z,31.30
2019-04-03T10:37:03.851Z,31.70
2019-04-03T10:39:33.588Z,32.60
2019-04-03T10:42:03.786Z,32.60
2019-04-03T10:44:33.389Z,32.40
2019-04-03T10:47:03.502Z,31.70
2019-04-03T10:49:33.236Z,30.40
2019-04-03T10:52:02.882Z,31.00
2019-04-03T10:54:32.833Z,30.80
2019-04-03T10:57:03.397Z,30.90
2019-04-03T10:59:34.270Z,30.90
2019-04-03T11:02:04.120Z,30.00
2019-04-03T11:04:34.001Z,30.40
2019-04-03T11:07:03.752Z,29.40
2019-04-03T11:09:33.525Z,30.00
2019-04-03T11:12:04.360Z,29.70
2019-04-03T11:14:34.110Z,29.40
2019-04-03T11:17:03.875Z,29.60
2019-04-03T11:19:35.094Z,29.40
2019-04-03T11:22:05.085Z,29.40
2019-04-03T11:24:37.778Z,29.10
2019-04-03T11:27:18.734Z,29.20
2019-04-03T11:29:48.464Z,28.70
2019-04-03T11:32:18.252Z,28.70
2019-04-03T11:34:49.310Z,28.70
2019-04-03T11:37:19.148Z,28.80
2019-04-03T11:40:00.726Z,28.80
2019-04-03T11:42:25.189Z,28.40
2019-04-03T11:44:51.530Z,28.40
2019-04-03T11:47:21.274Z,27.20
2019-04-03T11:49:52.538Z,28.00
2019-04-03T11:52:22.193Z,28.00
2019-04-03T11:54:53.018Z,27.80
2019-04-03T11:57:23.108Z,27.50
2019-04-03T11:59:54.478Z,27.00
2019-04-03T12:02:24.112Z,26.60
2019-04-03T12:04:53.788Z,27.50
2019-04-03T12:07:25.122Z,27.70
2019-04-03T12:09:56.152Z,27.50
2019-04-03T12:12:26.402Z,27.70
2019-04-03T12:14:55.998Z,26.90
2019-04-03T12:17:27.319Z,26.20
2019-04-03T12:19:58.005Z,27.10
2019-04-03T12:22:27.598Z,27.20
2019-04-03T12:24:57.501Z,26.90
2019-04-03T12:27:27.354Z,26.70
2019-04-03T12:29:56.957Z,26.70
2019-04-03T12:32:36.589Z,26.90
2019-04-03T12:34:57.879Z,27.00
2019-04-03T12:37:27.505Z,27.40
2019-04-03T12:39:58.220Z,27.20
2019-04-03T12:42:28.818Z,27.20
2019-04-03T12:44:58.596Z,27.20
2019-04-03T12:47:28.510Z,26.80
2019-04-03T12:49:58.400Z,27.00
2019-04-03T12:52:28.096Z,27.10
2019-04-03T12:54:57.834Z,27.90
2019-04-03T12:57:27.884Z,27.60
2019-04-03T12:59:57.844Z,27.40
2019-04-03T13:02:27.846Z,27.20
2019-04-03T13:05:00.266Z,27.30
2019-04-03T13:07:28.856Z,27.40
2019-04-03T13:09:58.456Z,28.10
2019-04-03T13:12:28.116Z,28.10
2019-04-03T13:14:57.720Z,28.00
2019-04-03T13:17:27.361Z,28.00
2019-04-03T13:19:59.740Z,28.00
2019-04-03T13:22:28.715Z,28.10
2019-04-03T13:24:58.501Z,28.50
2019-04-03T13:27:30.773Z,28.50
2019-04-03T13:29:59.530Z,28.70
2019-04-03T13:32:29.413Z,28.70
2019-04-03T13:34:59.462Z,28.70
2019-04-03T13:37:29.126Z,29.00
2019-04-03T13:40:00.497Z,29.20
2019-04-03T13:42:31.649Z,29.20
2019-04-03T13:45:01.384Z,29.20
2019-04-03T13:47:32.710Z,29.40
2019-04-03T13:50:03.598Z,29.40
2019-04-03T13:52:41.006Z,29.30
2019-04-03T13:55:07.010Z,29.10
2019-04-03T13:57:36.665Z,29.10
2019-04-03T14:00:18.351Z,29.20
2019-04-03T14:02:38.682Z,29.50
2019-04-03T14:05:08.969Z,29.50
2019-04-03T14:07:41.660Z,29.50
2019-04-03T14:10:10.322Z,29.70
2019-04-03T14:12:43.704Z,30.10
2019-04-03T14:15:11.534Z,30.00
2019-04-03T14:17:53.452Z,30.00
2019-04-03T14:20:34.734Z,30.20
2019-04-03T14:23:07.709Z,30.80
2019-04-03T14:25:38.706Z,30.30
2019-04-03T14:28:09.095Z,30.50
2019-04-03T14:30:38.886Z,30.90
2019-04-03T14:33:08.607Z,31.60
2019-04-03T14:35:48.782Z,31.80
2019-04-03T14:38:11.778Z,32.10
2019-04-03T14:40:43.073Z,31.90
2019-04-03T14:43:12.268Z,31.80
2019-04-03T14:45:43.191Z,31.40
2019-04-03T14:48:13.348Z,31.50
2019-04-03T14:50:43.172Z,31.50
2019-04-03T14:53:12.738Z,31.10
2019-04-03T14:55:48.225Z,31.20
2019-04-03T14:58:14.736Z,31.00
2019-04-03T15:00:46.756Z,31.00
2019-04-03T15:03:15.987Z,30.90
2019-04-03T15:05:45.743Z,31.00
2019-04-03T15:08:15.444Z,31.30
2019-04-03T15:10:45.160Z,31.30
2019-04-03T15:13:14.900Z,31.50
2019-04-03T15:15:44.651Z,31.30
2019-04-03T15:18:14.289Z,31.00
2019-04-03T15:20:43.960Z,30.90
2019-04-03T15:23:14.011Z,30.90
2019-04-03T15:25:43.725Z,30.60
2019-04-03T15:28:13.550Z,30.60
2019-04-03T15:30:43.814Z,30.40
2019-04-03T15:33:13.892Z,30.40
2019-04-03T15:35:43.744Z,30.40
2019-04-03T15:38:15.069Z,30.50
2019-04-03T15:40:44.826Z,30.60
2019-04-03T15:43:16.281Z,31.10
2019-04-03T15:45:45.822Z,31.10
2019-04-03T15:48:15.949Z,31.20
2019-04-03T15:50:45.597Z,31.20
2019-04-03T15:53:15.287Z,32.00
2019-04-03T15:55:44.946Z,32.10
2019-04-03T15:58:14.844Z,32.10
2019-04-03T16:00:44.837Z,32.30
2019-04-03T16:03:14.982Z,32.60
2019-04-03T16:05:45.858Z,32.60
2019-04-03T16:08:15.576Z,32.80
2019-04-03T16:10:45.258Z,32.80
2019-04-03T16:13:16.386Z,32.90
2019-04-03T16:15:46.635Z,33.60
2019-04-03T16:18:16.832Z,32.90
2019-04-03T16:20:48.136Z,32.90
2019-04-03T16:23:18.221Z,32.90
2019-04-03T16:25:49.269Z,33.00
2019-04-03T16:28:19.571Z,33.00
2019-04-03T16:30:52.530Z,33.20
2019-04-03T16:33:24.115Z,33.10
2019-04-03T16:35:51.904Z,33.20
2019-04-03T16:38:21.840Z,33.20
2019-04-03T16:40:51.438Z,33.20
2019-04-03T16:43:22.664Z,33.90
2019-04-03T16:45:53.660Z,33.40
2019-04-03T16:48:23.451Z,33.40
2019-04-03T16:50:53.270Z,33.40
2019-04-03T16:53:23.033Z,33.60
2019-04-03T16:55:52.775Z,33.70
2019-04-03T16:58:25.240Z,33.80
2019-04-03T17:00:53.744Z,34.00
2019-04-03T17:03:23.483Z,34.10
2019-04-03T17:05:53.167Z,34.20
2019-04-03T17:08:23.702Z,34.40
2019-04-03T17:10:54.141Z,35.20
2019-04-03T17:13:23.858Z,34.70
2019-04-03T17:15:56.384Z,35.60
2019-04-03T17:18:26.030Z,35.10
2019-04-03T17:20:56.911Z,35.10
2019-04-03T17:23:26.709Z,35.30
2019-04-03T17:25:56.824Z,35.70
2019-04-03T17:28:27.222Z,36.40
2019-04-03T17:30:57.361Z,35.40
2019-04-03T17:33:28.114Z,35.50
2019-04-03T17:35:58.140Z,35.50
2019-04-03T17:38:27.828Z,35.40
2019-04-03T17:40:59.105Z,36.00
2019-04-03T17:43:28.769Z,35.90
2019-04-03T17:45:58.464Z,36.30
2019-04-03T17:48:28.174Z,36.30
2019-04-03T17:50:57.865Z,36.60
2019-04-03T17:53:27.578Z,36.60
2019-04-03T17:55:57.161Z,37.00
2019-04-03T17:58:26.863Z,36.90
2019-04-03T18:00:56.643Z,37.10
2019-04-03T18:03:26.315Z,37.20
2019-04-03T18:05:56.903Z,37.30
2019-04-03T18:08:27.289Z,37.50
2019-04-03T18:10:56.877Z,37.60
2019-04-03T18:13:26.442Z,37.70
2019-04-03T18:15:58.519Z,37.90
2019-04-03T18:18:27.343Z,38.00
2019-04-03T18:20:56.962Z,38.00
2019-04-03T18:23:26.625Z,38.30
2019-04-03T18:25:59.365Z,38.50
2019-04-03T18:28:28.656Z,38.50
2019-04-03T18:30:58.505Z,38.50
2019-04-03T18:33:28.352Z,38.60
2019-04-03T18:35:58.160Z,38.50
2019-04-03T18:38:27.754Z,38.60
2019-04-03T18:40:57.375Z,38.70
2019-04-03T18:43:27.021Z,38.80
2019-04-03T18:45:59.989Z,38.90
2019-04-03T18:48:27.970Z,39.00
2019-04-03T18:50:57.668Z,39.20
2019-04-03T18:53:27.387Z,39.50
2019-04-03T18:55:57.102Z,39.50
2019-04-03T18:58:26.620Z,39.60
2019-04-03T19:00:56.287Z,39.80
2019-04-03T19:03:25.930Z,39.90
2019-04-03T19:05:55.600Z,40.00
2019-04-03T19:08:26.803Z,40.20
2019-04-03T19:11:01.987Z,40.10
2019-04-03T19:13:27.664Z,40.30
2019-04-03T19:15:57.302Z,40.60
2019-04-03T19:18:26.980Z,40.60
2019-04-03T19:20:56.625Z,40.80
2019-04-03T19:23:26.346Z,40.80
2019-04-03T19:25:58.128Z,41.00
2019-04-03T19:28:28.414Z,41.30
2019-04-03T19:31:10.538Z,41.80
2019-04-03T19:33:40.191Z,41.50
2019-04-03T19:36:09.906Z,41.80
2019-04-03T19:38:53.507Z,42.00
2019-04-03T19:41:23.301Z,42.30
2019-04-03T19:43:52.986Z,42.30
2019-04-03T19:46:23.288Z,42.30
2019-04-03T19:48:54.955Z,42.60
2019-04-03T19:51:25.411Z,42.90
2019-04-03T19:53:59.507Z,42.80
2019-04-03T19:56:26.490Z,43.10
2019-04-03T19:58:56.170Z,43.40
2019-04-03T20:01:25.908Z,43.50
2019-04-03T20:03:55.664Z,43.90
2019-04-03T20:06:26.379Z,43.80
2019-04-03T20:08:59.003Z,43.80
2019-04-03T20:11:28.820Z,43.70
2019-04-03T20:13:58.524Z,43.70
2019-04-03T20:16:28.196Z,44.00
2019-04-03T20:18:57.810Z,44.40
2019-04-03T20:21:39.785Z,43.70
2019-04-03T20:24:12.611Z,44.00
2019-04-03T20:26:40.656Z,44.60
2019-04-03T20:29:10.343Z,44.10
2019-04-03T20:31:40.846Z,44.70
2019-04-03T20:34:12.818Z,44.90
2019-04-03T20:36:43.562Z,45.10
2019-04-03T20:39:14.658Z,45.40
2019-04-03T20:41:44.423Z,45.30
2019-04-03T20:44:16.734Z,45.70
2019-04-03T20:46:45.334Z,45.70
2019-04-03T20:49:14.949Z,46.30
2019-04-03T20:51:44.622Z,45.90
2019-04-03T20:54:14.262Z,45.90
2019-04-03T20:56:56.722Z,46.60
2019-04-03T20:59:15.234Z,46.50
2019-04-03T21:01:44.854Z,46.50
2019-04-03T21:04:14.852Z,46.50
2019-04-03T21:06:45.021Z,47.40
2019-04-03T21:09:14.668Z,47.40
2019-04-03T21:11:44.242Z,47.90
2019-04-03T21:14:13.840Z,47.80
2019-04-03T21:16:43.500Z,48.10
2019-04-03T21:19:13.288Z,48.10
2019-04-03T21:21:43.027Z,48.40
2019-04-03T21:24:13.771Z,48.80
2019-04-03T21:26:43.588Z,49.10
2019-04-03T21:29:16.656Z,49.60
2019-04-03T21:31:44.622Z,49.60
2019-04-03T21:34:14.380Z,49.70
2019-04-03T21:36:44.120Z,49.80
2019-04-03T21:39:13.885Z,50.20
2019-04-03T21:41:43.626Z,50.70
2019-04-03T21:44:13.216Z,50.30
2019-04-03T21:46:42.921Z,50.40
2019-04-03T21:49:12.637Z,50.70
2019-04-03T21:51:42.228Z,50.00
2019-04-03T21:54:11.951Z,50.80
2019-04-03T21:56:41.530Z,50.40
2019-04-03T21:59:11.449Z,51.00
2019-04-03T22:01:41.247Z,51.10
2019-04-03T22:04:11.947Z,51.90
2019-04-03T22:06:41.659Z,52.20
2019-04-03T22:09:12.497Z,52.40
2019-04-03T22:11:42.301Z,51.80
2019-04-03T22:14:12.053Z,52.70
2019-04-03T22:16:41.697Z,52.50
2019-04-03T22:19:11.394Z,52.70
2019-04-03T22:21:41.034Z,52.70
2019-04-03T22:24:10.713Z,52.70
2019-04-03T22:26:40.689Z,52.40
2019-04-03T22:29:11.052Z,52.20
2019-04-03T22:31:40.762Z,52.80
2019-04-03T22:34:10.409Z,52.30
2019-04-03T22:36:40.076Z,52.20
2019-04-03T22:39:10.189Z,51.90
2019-04-03T22:41:42.581Z,52.10
2019-04-03T22:44:11.314Z,52.70
2019-04-03T22:46:41.053Z,52.30
2019-04-03T22:49:10.730Z,51.70
2019-04-03T22:51:40.486Z,52.00
2019-04-03T22:54:10.861Z,52.60
2019-04-03T22:56:41.365Z,52.00
2019-04-03T22:59:11.033Z,52.20
2019-04-03T23:01:40.623Z,51.80
2019-04-03T23:04:10.360Z,52.70
2019-04-03T23:06:40.117Z,52.00
2019-04-03T23:09:09.777Z,51.80
2019-04-03T23:11:39.515Z,52.40
2019-04-03T23:14:09.206Z,51.80
2019-04-03T23:16:38.894Z,52.00
2019-04-03T23:19:27.799Z,52.10
2019-04-03T23:21:57.400Z,51.60
2019-04-03T23:24:28.899Z,52.10
2019-04-03T23:26:58.350Z,51.90
2019-04-03T23:29:27.931Z,52.30
2019-04-03T23:31:57.578Z,51.90
2019-04-03T23:34:27.177Z,52.10
2019-04-03T23:36:56.898Z,52.00
2019-04-03T23:39:28.009Z,52.20
2019-04-03T23:41:57.844Z,52.30
2019-04-03T23:44:28.574Z,51.60
2019-04-03T23:46:58.311Z,52.30
2019-04-03T23:49:27.991Z,52.20
2019-04-03T23:51:58.979Z,52.60
2019-04-03T23:54:29.202Z,52.60
2019-04-03T23:56:59.185Z,52.60
2019-04-03T23:59:28.926Z,52.60
